sensor_id;sensor_type;location;lat;lon;timestamp;P1;durP1;ratioP1;P2;durP2;ratioP2
16308;SDS011;8263;48.880;9.276;2024-03-25T00:01:22;178.38;;;163.88;;
16308;SDS011;8263;48.880;9.276;2024-03-25T00:03:49;174.95;;;160.82;;
16308;SDS011;8263;48.880;9.276;2024-03-25T00:06:15;175.07;;;160.90;;
16308;SDS011;8263;48.880;9.276;2024-03-25T00:08:42;177.25;;;162.88;;
16308;SDS011;8263;48.880;9.276;2024-03-25T00:11:08;176.27;;;161.98;;
16308;SDS011;8263;48.880;9.276;2024-03-25T00:13:34;176.02;;;161.70;;
16308;SDS011;8263;48.880;9.276;2024-03-25T00:16:00;178.85;;;164.30;;
16308;SDS011;8263;48.880;9.276;2024-03-25T00:18:26;176.30;;;162.00;;
16308;SDS011;8263;48.880;9.276;2024-03-25T00:20:52;176.55;;;162.23;;
16308;SDS011;8263;48.880;9.276;2024-03-25T00:23:18;177.10;;;162.73;;
16308;SDS011;8263;48.880;9.276;2024-03-25T00:25:45;175.35;;;161.15;;
16308;SDS011;8263;48.880;9.276;2024-03-25T00:28:11;176.13;;;161.85;;
16308;SDS011;8263;48.880;9.276;2024-03-25T00:30:37;177.63;;;163.23;;
16308;SDS011;8263;48.880;9.276;2024-03-25T00:33:04;178.65;;;164.00;;
16308;SDS011;8263;48.880;9.276;2024-03-25T00:35:29;173.57;;;159.57;;
16308;SDS011;8263;48.880;9.276;2024-03-25T00:37:56;179.63;;;164.70;;
16308;SDS011;8263;48.880;9.276;2024-03-25T00:40:21;175.57;;;161.38;;
16308;SDS011;8263;48.880;9.276;2024-03-25T00:42:49;174.80;;;160.63;;
16308;SDS011;8263;48.880;9.276;2024-03-25T00:45:14;178.32;;;163.77;;
16308;SDS011;8263;48.880;9.276;2024-03-25T00:47:41;180.05;;;165.38;;
16308;SDS011;8263;48.880;9.276;2024-03-25T00:50:07;179.80;;;165.10;;
16308;SDS011;8263;48.880;9.276;2024-03-25T00:52:34;178.98;;;164.43;;
16308;SDS011;8263;48.880;9.276;2024-03-25T00:54:59;176.30;;;162.00;;
16308;SDS011;8263;48.880;9.276;2024-03-25T00:57:26;176.93;;;162.57;;
16308;SDS011;8263;48.880;9.276;2024-03-25T00:59:55;177.52;;;163.13;;
16308;SDS011;8263;48.880;9.276;2024-03-25T01:02:21;178.82;;;164.25;;
16308;SDS011;8263;48.880;9.276;2024-03-25T01:04:47;178.23;;;163.75;;
16308;SDS011;8263;48.880;9.276;2024-03-25T01:07:16;177.85;;;163.38;;
16308;SDS011;8263;48.880;9.276;2024-03-25T01:09:41;177.88;;;163.43;;
16308;SDS011;8263;48.880;9.276;2024-03-25T01:12:08;176.20;;;161.90;;
16308;SDS011;8263;48.880;9.276;2024-03-25T01:14:33;178.20;;;163.73;;
16308;SDS011;8263;48.880;9.276;2024-03-25T01:17:14;177.48;;;162.90;;
16308;SDS011;8263;48.880;9.276;2024-03-25T01:19:40;177.20;;;162.80;;
16308;SDS011;8263;48.880;9.276;2024-03-25T01:22:06;176.10;;;161.80;;
16308;SDS011;8263;48.880;9.276;2024-03-25T01:24:31;176.77;;;162.43;;
16308;SDS011;8263;48.880;9.276;2024-03-25T01:26:58;178.95;;;164.38;;
16308;SDS011;8263;48.880;9.276;2024-03-25T01:29:29;174.90;;;160.75;;
16308;SDS011;8263;48.880;9.276;2024-03-25T01:32:06;179.00;;;164.32;;
16308;SDS011;8263;48.880;9.276;2024-03-25T01:34:32;179.40;;;164.75;;
16308;SDS011;8263;48.880;9.276;2024-03-25T01:36:58;176.85;;;162.45;;
16308;SDS011;8263;48.880;9.276;2024-03-25T01:39:24;177.50;;;163.13;;
16308;SDS011;8263;48.880;9.276;2024-03-25T01:41:56;177.40;;;163.00;;
16308;SDS011;8263;48.880;9.276;2024-03-25T01:44:21;177.73;;;163.30;;
16308;SDS011;8263;48.880;9.276;2024-03-25T01:46:48;177.35;;;162.95;;
16308;SDS011;8263;48.880;9.276;2024-03-25T01:49:15;178.35;;;163.88;;
16308;SDS011;8263;48.880;9.276;2024-03-25T01:51:41;176.73;;;162.40;;
16308;SDS011;8263;48.880;9.276;2024-03-25T01:54:07;173.50;;;159.50;;
16308;SDS011;8263;48.880;9.276;2024-03-25T01:56:34;177.55;;;163.15;;
16308;SDS011;8263;48.880;9.276;2024-03-25T01:59:00;177.88;;;163.43;;
16308;SDS011;8263;48.880;9.276;2024-03-25T02:01:44;178.82;;;164.13;;
16308;SDS011;8263;48.880;9.276;2024-03-25T02:04:27;178.55;;;164.07;;
16308;SDS011;8263;48.880;9.276;2024-03-25T02:06:54;178.70;;;164.10;;
16308;SDS011;8263;48.880;9.276;2024-03-25T02:09:23;176.60;;;162.27;;
16308;SDS011;8263;48.880;9.276;2024-03-25T02:12:04;177.02;;;162.68;;
16308;SDS011;8263;48.880;9.276;2024-03-25T02:14:33;176.63;;;162.32;;
16308;SDS011;8263;48.880;9.276;2024-03-25T02:17:05;177.93;;;163.45;;
16308;SDS011;8263;48.880;9.276;2024-03-25T02:19:32;178.65;;;164.15;;
16308;SDS011;8263;48.880;9.276;2024-03-25T02:25:04;178.57;;;164.05;;
16308;SDS011;8263;48.880;9.276;2024-03-25T02:27:40;177.80;;;163.40;;
16308;SDS011;8263;48.880;9.276;2024-03-25T02:30:06;176.80;;;162.48;;
16308;SDS011;8263;48.880;9.276;2024-03-25T02:32:40;179.38;;;164.10;;
16308;SDS011;8263;48.880;9.276;2024-03-25T02:35:06;179.93;;;165.23;;
16308;SDS011;8263;48.880;9.276;2024-03-25T02:37:33;178.02;;;163.57;;
16308;SDS011;8263;48.880;9.276;2024-03-25T02:39:59;179.75;;;165.05;;
16308;SDS011;8263;48.880;9.276;2024-03-25T02:42:25;178.35;;;163.80;;
16308;SDS011;8263;48.880;9.276;2024-03-25T02:44:53;176.07;;;161.80;;
16308;SDS011;8263;48.880;9.276;2024-03-25T02:47:19;177.93;;;163.48;;
16308;SDS011;8263;48.880;9.276;2024-03-25T02:49:45;179.70;;;165.05;;
16308;SDS011;8263;48.880;9.276;2024-03-25T02:52:11;177.25;;;162.82;;
16308;SDS011;8263;48.880;9.276;2024-03-25T02:54:37;178.40;;;163.90;;
16308;SDS011;8263;48.880;9.276;2024-03-25T02:57:03;179.35;;;164.75;;
16308;SDS011;8263;48.880;9.276;2024-03-25T02:59:29;179.13;;;164.57;;
16308;SDS011;8263;48.880;9.276;2024-03-25T03:01:57;177.45;;;163.07;;
16308;SDS011;8263;48.880;9.276;2024-03-25T03:04:22;177.45;;;163.07;;
16308;SDS011;8263;48.880;9.276;2024-03-25T03:06:48;177.10;;;162.70;;
16308;SDS011;8263;48.880;9.276;2024-03-25T03:09:14;177.70;;;163.20;;
16308;SDS011;8263;48.880;9.276;2024-03-25T03:11:41;179.20;;;164.63;;
16308;SDS011;8263;48.880;9.276;2024-03-25T03:14:22;178.32;;;163.82;;
16308;SDS011;8263;48.880;9.276;2024-03-25T03:16:48;176.80;;;162.50;;
16308;SDS011;8263;48.880;9.276;2024-03-25T03:24:52;179.85;;;165.23;;
16308;SDS011;8263;48.880;9.276;2024-03-25T03:27:18;179.15;;;164.52;;
16308;SDS011;8263;48.880;9.276;2024-03-25T03:29:44;178.75;;;164.23;;
16308;SDS011;8263;48.880;9.276;2024-03-25T03:32:09;176.75;;;162.40;;
16308;SDS011;8263;48.880;9.276;2024-03-25T03:34:36;178.50;;;164.05;;
16308;SDS011;8263;48.880;9.276;2024-03-25T03:37:04;178.65;;;164.13;;
16308;SDS011;8263;48.880;9.276;2024-03-25T03:39:31;179.30;;;164.73;;
16308;SDS011;8263;48.880;9.276;2024-03-25T03:41:58;179.20;;;164.60;;
16308;SDS011;8263;48.880;9.276;2024-03-25T03:44:34;180.25;;;165.57;;
16308;SDS011;8263;48.880;9.276;2024-03-25T03:47:02;178.82;;;164.25;;
16308;SDS011;8263;48.880;9.276;2024-03-25T03:49:45;176.02;;;161.77;;
16308;SDS011;8263;48.880;9.276;2024-03-25T03:52:34;178.30;;;163.82;;
16308;SDS011;8263;48.880;9.276;2024-03-25T03:55:15;179.80;;;165.15;;
16308;SDS011;8263;48.880;9.276;2024-03-25T03:58:04;178.07;;;163.60;;
16308;SDS011;8263;48.880;9.276;2024-03-25T04:00:50;177.60;;;163.20;;
16308;SDS011;8263;48.880;9.276;2024-03-25T04:03:20;179.18;;;164.63;;
16308;SDS011;8263;48.880;9.276;2024-03-25T04:08:59;180.27;;;165.57;;
16308;SDS011;8263;48.880;9.276;2024-03-25T04:11:25;178.85;;;164.27;;
16308;SDS011;8263;48.880;9.276;2024-03-25T04:13:52;178.00;;;163.57;;
16308;SDS011;8263;48.880;9.276;2024-03-25T04:16:19;178.88;;;164.32;;
16308;SDS011;8263;48.880;9.276;2024-03-25T04:18:44;179.07;;;164.50;;
16308;SDS011;8263;48.880;9.276;2024-03-25T04:21:12;178.85;;;164.32;;
16308;SDS011;8263;48.880;9.276;2024-03-25T04:26:35;179.15;;;164.57;;
16308;SDS011;8263;48.880;9.276;2024-03-25T04:29:23;179.63;;;165.00;;
16308;SDS011;8263;48.880;9.276;2024-03-25T04:31:53;179.63;;;165.02;;
16308;SDS011;8263;48.880;9.276;2024-03-25T04:34:18;178.85;;;164.30;;
16308;SDS011;8263;48.880;9.276;2024-03-25T04:36:53;179.85;;;164.80;;
16308;SDS011;8263;48.880;9.276;2024-03-25T04:39:18;175.98;;;161.70;;
16308;SDS011;8263;48.880;9.276;2024-03-25T04:41:44;180.05;;;165.38;;
16308;SDS011;8263;48.880;9.276;2024-03-25T04:44:09;179.43;;;164.77;;
16308;SDS011;8263;48.880;9.276;2024-03-25T04:46:36;178.57;;;164.07;;
16308;SDS011;8263;48.880;9.276;2024-03-25T04:49:02;178.00;;;163.52;;
16308;SDS011;8263;48.880;9.276;2024-03-25T04:51:28;179.45;;;164.85;;
16308;SDS011;8263;48.880;9.276;2024-03-25T04:53:53;176.63;;;162.30;;
16308;SDS011;8263;48.880;9.276;2024-03-25T04:56:18;176.98;;;162.63;;
16308;SDS011;8263;48.880;9.276;2024-03-25T04:58:44;178.57;;;164.05;;
16308;SDS011;8263;48.880;9.276;2024-03-25T05:01:10;179.63;;;164.95;;
16308;SDS011;8263;48.880;9.276;2024-03-25T05:03:37;178.60;;;164.10;;
16308;SDS011;8263;48.880;9.276;2024-03-25T05:06:02;180.25;;;165.57;;
16308;SDS011;8263;48.880;9.276;2024-03-25T05:08:28;179.38;;;164.75;;
16308;SDS011;8263;48.880;9.276;2024-03-25T05:10:53;180.38;;;165.60;;
16308;SDS011;8263;48.880;9.276;2024-03-25T05:13:19;177.45;;;163.05;;
16308;SDS011;8263;48.880;9.276;2024-03-25T05:15:51;178.00;;;163.55;;
16308;SDS011;8263;48.880;9.276;2024-03-25T05:18:16;178.45;;;163.95;;
16308;SDS011;8263;48.880;9.276;2024-03-25T05:20:43;177.93;;;163.48;;
16308;SDS011;8263;48.880;9.276;2024-03-25T05:23:12;177.10;;;162.70;;
16308;SDS011;8263;48.880;9.276;2024-03-25T05:25:55;178.57;;;164.07;;
16308;SDS011;8263;48.880;9.276;2024-03-25T05:28:24;180.10;;;165.40;;
16308;SDS011;8263;48.880;9.276;2024-03-25T05:33:42;177.90;;;163.48;;
16308;SDS011;8263;48.880;9.276;2024-03-25T05:36:17;177.23;;;162.75;;
16308;SDS011;8263;48.880;9.276;2024-03-25T05:38:52;178.05;;;163.57;;
16308;SDS011;8263;48.880;9.276;2024-03-25T05:41:20;179.40;;;164.82;;
16308;SDS011;8263;48.880;9.276;2024-03-25T05:43:46;179.48;;;164.80;;
16308;SDS011;8263;48.880;9.276;2024-03-25T05:46:20;177.85;;;163.32;;
16308;SDS011;8263;48.880;9.276;2024-03-25T05:48:52;181.90;;;166.00;;
16308;SDS011;8263;48.880;9.276;2024-03-25T05:51:24;180.40;;;165.70;;
16308;SDS011;8263;48.880;9.276;2024-03-25T05:56:29;179.30;;;164.75;;
16308;SDS011;8263;48.880;9.276;2024-03-25T05:56:52;179.60;;;165.00;;
16308;SDS011;8263;48.880;9.276;2024-03-25T05:59:20;179.52;;;164.93;;
16308;SDS011;8263;48.880;9.276;2024-03-25T06:01:49;177.90;;;163.48;;
16308;SDS011;8263;48.880;9.276;2024-03-25T06:04:24;179.93;;;165.30;;
16308;SDS011;8263;48.880;9.276;2024-03-25T06:06:53;180.32;;;165.63;;
16308;SDS011;8263;48.880;9.276;2024-03-25T06:09:25;178.68;;;164.13;;
16308;SDS011;8263;48.880;9.276;2024-03-25T06:17:17;179.27;;;164.68;;
16308;SDS011;8263;48.880;9.276;2024-03-25T06:19:49;178.95;;;164.40;;
16308;SDS011;8263;48.880;9.276;2024-03-25T06:22:21;181.10;;;166.35;;
16308;SDS011;8263;48.880;9.276;2024-03-25T06:25:16;182.40;;;167.50;;
16308;SDS011;8263;48.880;9.276;2024-03-25T06:27:42;181.15;;;166.05;;
16308;SDS011;8263;48.880;9.276;2024-03-25T06:30:18;179.15;;;164.55;;
16308;SDS011;8263;48.880;9.276;2024-03-25T06:33:03;182.23;;;167.35;;
16308;SDS011;8263;48.880;9.276;2024-03-25T06:38:38;179.65;;;164.93;;
16308;SDS011;8263;48.880;9.276;2024-03-25T06:41:03;180.90;;;166.13;;
16308;SDS011;8263;48.880;9.276;2024-03-25T06:43:29;178.57;;;164.00;;
16308;SDS011;8263;48.880;9.276;2024-03-25T06:45:54;180.25;;;165.55;;
16308;SDS011;8263;48.880;9.276;2024-03-25T06:48:23;179.93;;;165.25;;
16308;SDS011;8263;48.880;9.276;2024-03-25T06:51:06;179.02;;;164.45;;
16308;SDS011;8263;48.880;9.276;2024-03-25T06:53:34;178.95;;;164.38;;
16308;SDS011;8263;48.880;9.276;2024-03-25T06:56:02;179.00;;;164.50;;
16308;SDS011;8263;48.880;9.276;2024-03-25T06:58:31;179.05;;;164.50;;
16308;SDS011;8263;48.880;9.276;2024-03-25T07:01:03;183.48;;;167.45;;
16308;SDS011;8263;48.880;9.276;2024-03-25T07:03:52;181.82;;;167.00;;
16308;SDS011;8263;48.880;9.276;2024-03-25T07:06:27;180.32;;;165.65;;
16308;SDS011;8263;48.880;9.276;2024-03-25T07:08:52;180.85;;;166.10;;
16308;SDS011;8263;48.880;9.276;2024-03-25T07:11:20;180.32;;;165.60;;
16308;SDS011;8263;48.880;9.276;2024-03-25T07:13:49;180.95;;;166.10;;
16308;SDS011;8263;48.880;9.276;2024-03-25T07:16:22;181.68;;;166.82;;
16308;SDS011;8263;48.880;9.276;2024-03-25T07:18:51;178.52;;;163.98;;
16308;SDS011;8263;48.880;9.276;2024-03-25T07:21:25;179.90;;;165.27;;
16308;SDS011;8263;48.880;9.276;2024-03-25T07:23:50;178.40;;;163.85;;
16308;SDS011;8263;48.880;9.276;2024-03-25T07:26:32;180.77;;;165.85;;
16308;SDS011;8263;48.880;9.276;2024-03-25T07:28:58;180.15;;;165.48;;
16308;SDS011;8263;48.880;9.276;2024-03-25T07:31:27;180.65;;;165.93;;
16308;SDS011;8263;48.880;9.276;2024-03-25T07:33:52;180.40;;;165.68;;
16308;SDS011;8263;48.880;9.276;2024-03-25T07:36:18;180.15;;;165.48;;
16308;SDS011;8263;48.880;9.276;2024-03-25T07:38:46;180.57;;;165.77;;
16308;SDS011;8263;48.880;9.276;2024-03-25T07:41:12;178.45;;;163.85;;
16308;SDS011;8263;48.880;9.276;2024-03-25T07:43:45;181.02;;;166.25;;
16308;SDS011;8263;48.880;9.276;2024-03-25T07:46:10;178.32;;;163.82;;
16308;SDS011;8263;48.880;9.276;2024-03-25T07:48:36;180.13;;;165.45;;
16308;SDS011;8263;48.880;9.276;2024-03-25T07:51:02;177.80;;;163.35;;
16308;SDS011;8263;48.880;9.276;2024-03-25T07:53:27;176.88;;;162.55;;
16308;SDS011;8263;48.880;9.276;2024-03-25T07:55:53;179.48;;;164.85;;
16308;SDS011;8263;48.880;9.276;2024-03-25T07:58:18;180.25;;;165.60;;
16308;SDS011;8263;48.880;9.276;2024-03-25T08:00:45;178.15;;;163.70;;
16308;SDS011;8263;48.880;9.276;2024-03-25T08:03:11;179.23;;;164.63;;
16308;SDS011;8263;48.880;9.276;2024-03-25T08:05:36;178.45;;;163.98;;
16308;SDS011;8263;48.880;9.276;2024-03-25T08:08:02;178.80;;;164.18;;
16308;SDS011;8263;48.880;9.276;2024-03-25T08:10:27;177.20;;;162.80;;
16308;SDS011;8263;48.880;9.276;2024-03-25T08:12:56;177.35;;;163.00;;
16308;SDS011;8263;48.880;9.276;2024-03-25T08:15:22;176.48;;;162.15;;
16308;SDS011;8263;48.880;9.276;2024-03-25T08:17:49;178.30;;;163.82;;
16308;SDS011;8263;48.880;9.276;2024-03-25T08:20:14;177.85;;;163.43;;
16308;SDS011;8263;48.880;9.276;2024-03-25T08:22:40;178.43;;;163.93;;
16308;SDS011;8263;48.880;9.276;2024-03-25T08:25:05;176.30;;;162.05;;
16308;SDS011;8263;48.880;9.276;2024-03-25T08:27:31;176.75;;;162.43;;
16308;SDS011;8263;48.880;9.276;2024-03-25T08:29:56;177.00;;;162.65;;
16308;SDS011;8263;48.880;9.276;2024-03-25T08:32:22;176.93;;;162.55;;
16308;SDS011;8263;48.880;9.276;2024-03-25T08:34:49;175.63;;;161.43;;
16308;SDS011;8263;48.880;9.276;2024-03-25T08:37:14;176.00;;;161.80;;
16308;SDS011;8263;48.880;9.276;2024-03-25T08:39:40;176.38;;;162.15;;
16308;SDS011;8263;48.880;9.276;2024-03-25T08:42:05;175.38;;;161.20;;
16308;SDS011;8263;48.880;9.276;2024-03-25T08:44:31;176.40;;;162.02;;
16308;SDS011;8263;48.880;9.276;2024-03-25T08:46:56;177.05;;;162.68;;
16308;SDS011;8263;48.880;9.276;2024-03-25T08:49:21;175.95;;;161.75;;
16308;SDS011;8263;48.880;9.276;2024-03-25T08:51:48;173.52;;;159.52;;
16308;SDS011;8263;48.880;9.276;2024-03-25T08:54:14;175.85;;;161.57;;
16308;SDS011;8263;48.880;9.276;2024-03-25T08:56:39;173.25;;;159.25;;
16308;SDS011;8263;48.880;9.276;2024-03-25T08:59:05;174.80;;;160.70;;
16308;SDS011;8263;48.880;9.276;2024-03-25T09:01:30;172.85;;;158.98;;
16308;SDS011;8263;48.880;9.276;2024-03-25T09:03:56;174.18;;;160.18;;
16308;SDS011;8263;48.880;9.276;2024-03-25T09:06:21;173.80;;;159.80;;
16308;SDS011;8263;48.880;9.276;2024-03-25T09:08:48;173.63;;;159.68;;
16308;SDS011;8263;48.880;9.276;2024-03-25T09:11:32;173.18;;;159.27;;
16308;SDS011;8263;48.880;9.276;2024-03-25T09:13:57;172.38;;;158.57;;
16308;SDS011;8263;48.880;9.276;2024-03-25T09:16:23;172.70;;;158.88;;
16308;SDS011;8263;48.880;9.276;2024-03-25T09:18:49;171.70;;;157.95;;
16308;SDS011;8263;48.880;9.276;2024-03-25T09:21:15;172.90;;;158.75;;
16308;SDS011;8263;48.880;9.276;2024-03-25T09:23:40;172.10;;;158.30;;
16308;SDS011;8263;48.880;9.276;2024-03-25T09:26:07;171.25;;;157.57;;
16308;SDS011;8263;48.880;9.276;2024-03-25T09:28:32;171.70;;;157.95;;
16308;SDS011;8263;48.880;9.276;2024-03-25T09:30:58;170.95;;;157.25;;
16308;SDS011;8263;48.880;9.276;2024-03-25T09:33:23;171.80;;;158.02;;
16308;SDS011;8263;48.880;9.276;2024-03-25T09:35:49;171.02;;;157.35;;
16308;SDS011;8263;48.880;9.276;2024-03-25T09:38:14;171.52;;;157.63;;
16308;SDS011;8263;48.880;9.276;2024-03-25T09:40:40;170.90;;;157.20;;
16308;SDS011;8263;48.880;9.276;2024-03-25T09:43:10;169.43;;;155.80;;
16308;SDS011;8263;48.880;9.276;2024-03-25T09:45:38;169.70;;;156.15;;
16308;SDS011;8263;48.880;9.276;2024-03-25T09:48:05;170.95;;;157.25;;
16308;SDS011;8263;48.880;9.276;2024-03-25T09:50:31;169.23;;;155.75;;
16308;SDS011;8263;48.880;9.276;2024-03-25T09:52:56;170.77;;;157.13;;
16308;SDS011;8263;48.880;9.276;2024-03-25T09:55:22;169.70;;;156.20;;
16308;SDS011;8263;48.880;9.276;2024-03-25T09:57:47;167.70;;;154.45;;
16308;SDS011;8263;48.880;9.276;2024-03-25T10:00:14;171.13;;;157.48;;
16308;SDS011;8263;48.880;9.276;2024-03-25T10:02:40;167.25;;;154.05;;
16308;SDS011;8263;48.880;9.276;2024-03-25T10:05:06;169.60;;;156.13;;
16308;SDS011;8263;48.880;9.276;2024-03-25T10:07:32;167.75;;;154.48;;
16308;SDS011;8263;48.880;9.276;2024-03-25T10:09:58;167.15;;;153.98;;
16308;SDS011;8263;48.880;9.276;2024-03-25T10:12:24;168.95;;;155.60;;
16308;SDS011;8263;48.880;9.276;2024-03-25T10:14:49;166.65;;;153.52;;
16308;SDS011;8263;48.880;9.276;2024-03-25T10:17:16;167.68;;;154.40;;
16308;SDS011;8263;48.880;9.276;2024-03-25T10:19:42;166.80;;;153.50;;
16308;SDS011;8263;48.880;9.276;2024-03-25T10:22:08;167.75;;;154.55;;
16308;SDS011;8263;48.880;9.276;2024-03-25T10:24:37;166.07;;;153.02;;
16308;SDS011;8263;48.880;9.276;2024-03-25T10:27:03;166.98;;;153.77;;
16308;SDS011;8263;48.880;9.276;2024-03-25T10:29:28;167.02;;;153.93;;
16308;SDS011;8263;48.880;9.276;2024-03-25T10:31:58;166.60;;;153.52;;
16308;SDS011;8263;48.880;9.276;2024-03-25T10:34:25;163.02;;;150.35;;
16308;SDS011;8263;48.880;9.276;2024-03-25T10:36:51;166.80;;;153.57;;
16308;SDS011;8263;48.880;9.276;2024-03-25T10:39:18;166.02;;;152.68;;
16308;SDS011;8263;48.880;9.276;2024-03-25T10:41:44;164.80;;;151.93;;
16308;SDS011;8263;48.880;9.276;2024-03-25T10:44:11;166.73;;;153.68;;
16308;SDS011;8263;48.880;9.276;2024-03-25T10:46:36;164.13;;;151.32;;
16308;SDS011;8263;48.880;9.276;2024-03-25T10:49:03;164.45;;;151.68;;
16308;SDS011;8263;48.880;9.276;2024-03-25T10:51:33;163.80;;;151.07;;
16308;SDS011;8263;48.880;9.276;2024-03-25T10:54:00;164.27;;;151.48;;
16308;SDS011;8263;48.880;9.276;2024-03-25T10:56:27;164.57;;;151.43;;
16308;SDS011;8263;48.880;9.276;2024-03-25T10:58:52;166.35;;;153.35;;
16308;SDS011;8263;48.880;9.276;2024-03-25T11:01:19;162.45;;;149.85;;
16308;SDS011;8263;48.880;9.276;2024-03-25T11:03:45;163.52;;;150.82;;
16308;SDS011;8263;48.880;9.276;2024-03-25T11:06:11;165.95;;;152.88;;
16308;SDS011;8263;48.880;9.276;2024-03-25T11:08:38;165.43;;;152.52;;
16308;SDS011;8263;48.880;9.276;2024-03-25T11:11:04;162.77;;;150.05;;
16308;SDS011;8263;48.880;9.276;2024-03-25T11:13:30;164.55;;;151.77;;
16308;SDS011;8263;48.880;9.276;2024-03-25T11:15:56;163.23;;;150.57;;
16308;SDS011;8263;48.880;9.276;2024-03-25T11:18:23;161.38;;;148.93;;
16308;SDS011;8263;48.880;9.276;2024-03-25T11:20:59;162.63;;;150.02;;
16308;SDS011;8263;48.880;9.276;2024-03-25T11:23:24;163.77;;;151.10;;
16308;SDS011;8263;48.880;9.276;2024-03-25T11:25:54;162.45;;;149.93;;
16308;SDS011;8263;48.880;9.276;2024-03-25T11:28:26;163.85;;;151.15;;
16308;SDS011;8263;48.880;9.276;2024-03-25T11:30:51;163.52;;;150.82;;
16308;SDS011;8263;48.880;9.276;2024-03-25T11:33:17;164.88;;;152.07;;
16308;SDS011;8263;48.880;9.276;2024-03-25T11:35:43;163.98;;;151.25;;
16308;SDS011;8263;48.880;9.276;2024-03-25T11:38:08;162.13;;;149.60;;
16308;SDS011;8263;48.880;9.276;2024-03-25T11:40:34;162.30;;;149.80;;
16308;SDS011;8263;48.880;9.276;2024-03-25T11:43:02;162.50;;;149.88;;
16308;SDS011;8263;48.880;9.276;2024-03-25T11:45:28;162.77;;;150.18;;
16308;SDS011;8263;48.880;9.276;2024-03-25T11:47:55;163.65;;;150.98;;
16308;SDS011;8263;48.880;9.276;2024-03-25T11:50:20;163.23;;;150.60;;
16308;SDS011;8263;48.880;9.276;2024-03-25T11:52:46;161.38;;;148.95;;
16308;SDS011;8263;48.880;9.276;2024-03-25T11:55:15;162.27;;;149.75;;
16308;SDS011;8263;48.880;9.276;2024-03-25T11:57:41;161.65;;;149.15;;
16308;SDS011;8263;48.880;9.276;2024-03-25T12:00:09;162.02;;;149.52;;
16308;SDS011;8263;48.880;9.276;2024-03-25T12:02:35;161.82;;;149.30;;
16308;SDS011;8263;48.880;9.276;2024-03-25T12:05:00;161.52;;;149.07;;
16308;SDS011;8263;48.880;9.276;2024-03-25T12:07:26;162.95;;;150.35;;
16308;SDS011;8263;48.880;9.276;2024-03-25T12:09:51;162.18;;;149.68;;
16308;SDS011;8263;48.880;9.276;2024-03-25T12:12:35;161.90;;;149.45;;
16308;SDS011;8263;48.880;9.276;2024-03-25T12:15:01;162.77;;;150.23;;
16308;SDS011;8263;48.880;9.276;2024-03-25T12:17:28;162.35;;;149.85;;
16308;SDS011;8263;48.880;9.276;2024-03-25T12:20:04;161.48;;;149.07;;
16308;SDS011;8263;48.880;9.276;2024-03-25T12:22:30;162.57;;;150.02;;
16308;SDS011;8263;48.880;9.276;2024-03-25T12:24:56;158.48;;;146.38;;
16308;SDS011;8263;48.880;9.276;2024-03-25T12:27:22;160.75;;;148.43;;
16308;SDS011;8263;48.880;9.276;2024-03-25T12:29:56;159.30;;;147.10;;
16308;SDS011;8263;48.880;9.276;2024-03-25T12:32:21;159.43;;;147.20;;
16308;SDS011;8263;48.880;9.276;2024-03-25T12:34:48;160.55;;;148.25;;
16308;SDS011;8263;48.880;9.276;2024-03-25T12:37:14;159.57;;;147.38;;
16308;SDS011;8263;48.880;9.276;2024-03-25T12:39:46;160.52;;;148.25;;
16308;SDS011;8263;48.880;9.276;2024-03-25T12:42:12;158.57;;;146.52;;
16308;SDS011;8263;48.880;9.276;2024-03-25T12:44:38;161.15;;;148.77;;
16308;SDS011;8263;48.880;9.276;2024-03-25T12:47:03;159.00;;;146.80;;
16308;SDS011;8263;48.880;9.276;2024-03-25T12:49:29;159.00;;;146.90;;
16308;SDS011;8263;48.880;9.276;2024-03-25T12:51:56;157.82;;;145.73;;
16308;SDS011;8263;48.880;9.276;2024-03-25T12:54:21;159.25;;;147.13;;
16308;SDS011;8263;48.880;9.276;2024-03-25T12:56:47;160.07;;;147.88;;
16308;SDS011;8263;48.880;9.276;2024-03-25T12:59:12;157.73;;;145.70;;
16308;SDS011;8263;48.880;9.276;2024-03-25T13:01:38;158.20;;;146.20;;
16308;SDS011;8263;48.880;9.276;2024-03-25T13:04:03;156.93;;;145.02;;
16308;SDS011;8263;48.880;9.276;2024-03-25T13:06:29;157.95;;;145.95;;
16308;SDS011;8263;48.880;9.276;2024-03-25T13:08:56;157.13;;;145.20;;
16308;SDS011;8263;48.880;9.276;2024-03-25T13:11:21;157.57;;;145.52;;
16308;SDS011;8263;48.880;9.276;2024-03-25T13:13:47;159.35;;;147.20;;
16308;SDS011;8263;48.880;9.276;2024-03-25T13:16:12;155.48;;;143.77;;
16308;SDS011;8263;48.880;9.276;2024-03-25T13:18:38;158.35;;;146.15;;
16308;SDS011;8263;48.880;9.276;2024-03-25T13:21:03;157.27;;;145.38;;
16308;SDS011;8263;48.880;9.276;2024-03-25T13:23:29;156.95;;;145.05;;
16308;SDS011;8263;48.880;9.276;2024-03-25T13:25:56;155.50;;;143.80;;
16308;SDS011;8263;48.880;9.276;2024-03-25T13:28:22;158.07;;;146.10;;
16308;SDS011;8263;48.880;9.276;2024-03-25T13:30:47;157.57;;;145.65;;
16308;SDS011;8263;48.880;9.276;2024-03-25T13:33:13;156.73;;;144.88;;
16308;SDS011;8263;48.880;9.276;2024-03-25T13:35:39;154.48;;;142.88;;
16308;SDS011;8263;48.880;9.276;2024-03-25T13:38:04;157.93;;;145.98;;
16308;SDS011;8263;48.880;9.276;2024-03-25T13:40:30;159.13;;;147.02;;
16308;SDS011;8263;48.880;9.276;2024-03-25T13:42:57;156.68;;;144.88;;
16308;SDS011;8263;48.880;9.276;2024-03-25T13:45:22;156.77;;;144.93;;
16308;SDS011;8263;48.880;9.276;2024-03-25T13:47:48;155.18;;;143.43;;
16308;SDS011;8263;48.880;9.276;2024-03-25T13:50:13;153.05;;;141.57;;
16308;SDS011;8263;48.880;9.276;2024-03-25T13:52:39;155.02;;;143.38;;
16308;SDS011;8263;48.880;9.276;2024-03-25T13:55:04;155.05;;;143.43;;
16308;SDS011;8263;48.880;9.276;2024-03-25T13:57:30;154.73;;;143.10;;
16308;SDS011;8263;48.880;9.276;2024-03-25T13:59:57;157.20;;;145.30;;
16308;SDS011;8263;48.880;9.276;2024-03-25T14:02:23;156.60;;;144.80;;
16308;SDS011;8263;48.880;9.276;2024-03-25T14:04:48;154.38;;;142.80;;
16308;SDS011;8263;48.880;9.276;2024-03-25T14:07:14;154.30;;;142.70;;
16308;SDS011;8263;48.880;9.276;2024-03-25T14:09:39;152.32;;;141.00;;
16308;SDS011;8263;48.880;9.276;2024-03-25T14:12:05;155.98;;;144.27;;
16308;SDS011;8263;48.880;9.276;2024-03-25T14:14:30;154.25;;;142.73;;
16308;SDS011;8263;48.880;9.276;2024-03-25T14:16:57;155.40;;;143.73;;
16308;SDS011;8263;48.880;9.276;2024-03-25T14:19:23;156.18;;;144.35;;
16308;SDS011;8263;48.880;9.276;2024-03-25T14:21:48;156.23;;;144.48;;
16308;SDS011;8263;48.880;9.276;2024-03-25T14:24:14;153.27;;;141.45;;
16308;SDS011;8263;48.880;9.276;2024-03-25T14:26:39;155.57;;;143.90;;
16308;SDS011;8263;48.880;9.276;2024-03-25T14:29:05;153.30;;;141.90;;
16308;SDS011;8263;48.880;9.276;2024-03-25T14:31:30;153.63;;;142.13;;
16308;SDS011;8263;48.880;9.276;2024-03-25T14:33:57;154.35;;;142.80;;
16308;SDS011;8263;48.880;9.276;2024-03-25T14:36:23;153.18;;;141.70;;
16308;SDS011;8263;48.880;9.276;2024-03-25T14:38:49;155.30;;;143.68;;